Time;durP1;ratioP1;P1;durP2;ratioP2;P2;SDS_P1;SDS_P2;PMS_P1;PMS_P2;Temp;Humidity;BMP_temperature;BMP_pressure;BME280_temperature;BME280_humidity;BME280_pressure;Samples;Min_cycle;Max_cycle;Signal;HPM_P1;HPM_P2
2022/08/21 00:00:46;;;;;;;1999.90;999.90;;;15.30;99.90;;;;;;5035979;28;20214;-64
2022/08/21 00:03:13;;;;;;;1999.90;999.90;;;15.30;99.90;;;;;;5035560;28;20665;-64
2022/08/21 00:05:47;;;;;;;1999.90;999.90;;;15.30;99.90;;;;;;5035649;28;20207;-64
2022/08/21 00:08:14;;;;;;;1999.90;999.90;;;15.40;99.90;;;;;;5035875;28;20194;-64
2022/08/21 00:10:42;;;;;;;1999.90;999.90;;;15.50;99.90;;;;;;5035749;28;20207;-64
2022/08/21 00:13:09;;;;;;;1999.90;999.90;;;15.50;99.90;;;;;;5035844;28;20200;-64
2022/08/21 00:15:38;;;;;;;1999.90;999.90;;;15.60;99.90;;;;;;5035698;28;20198;-64
2022/08/21 00:18:08;;;;;;;1999.90;999.90;;;15.60;99.90;;;;;;5035618;28;20207;-64
2022/08/21 00:20:35;;;;;;;1999.90;999.90;;;15.60;99.90;;;;;;5035470;28;20200;-64
2022/08/21 00:23:05;;;;;;;1999.90;999.90;;;15.60;99.90;;;;;;5035607;28;20195;-64
2022/08/21 00:25:32;;;;;;;1999.90;999.90;;;15.70;99.90;;;;;;5035478;28;20211;-64
2022/08/21 00:27:59;;;;;;;1999.90;999.90;;;15.70;99.90;;;;;;5035483;28;20204;-64
2022/08/21 00:30:27;;;;;;;1999.90;999.90;;;15.70;99.90;;;;;;5035483;28;20199;-64
2022/08/21 00:32:56;;;;;;;1999.90;999.90;;;15.70;99.90;;;;;;5035336;28;20206;-64
2022/08/21 00:35:26;;;;;;;1999.90;999.90;;;15.60;99.90;;;;;;5034938;28;20236;-64
2022/08/21 00:37:53;;;;;;;1999.90;999.90;;;15.50;99.90;;;;;;5035092;28;20184;-65
2022/08/21 00:40:26;;;;;;;1999.90;999.90;;;15.50;99.90;;;;;;5034952;28;20218;-65
2022/08/21 00:42:53;;;;;;;1999.90;999.90;;;15.40;99.90;;;;;;5035246;28;20223;-64
2022/08/21 00:45:21;;;;;;;1999.90;999.90;;;15.30;99.90;;;;;;5035134;28;20208;-64
2022/08/21 00:47:48;;;;;;;1999.90;999.90;;;15.20;99.90;;;;;;5034829;28;20206;-64
2022/08/21 00:50:15;;;;;;;1999.90;999.90;;;15.20;99.90;;;;;;5034671;28;20565;-64
2022/08/21 00:52:43;;;;;;;1999.90;999.90;;;15.30;99.90;;;;;;5035096;28;20202;-64
2022/08/21 00:55:12;;;;;;;1999.90;999.90;;;15.20;99.90;;;;;;5034732;28;20218;-65
2022/08/21 00:57:44;;;;;;;1999.90;999.90;;;15.20;99.90;;;;;;5034961;28;20204;-64
2022/08/21 01:00:16;;;;;;;1999.90;999.90;;;15.10;99.90;;;;;;5034722;28;20199;-64
2022/08/21 01:02:43;;;;;;;1999.90;999.90;;;15.00;99.90;;;;;;5033219;28;20216;-63
2022/08/21 01:05:11;;;;;;;1999.90;999.90;;;15.10;99.90;;;;;;5034842;28;20200;-64
2022/08/21 01:07:38;;;;;;;1999.90;999.90;;;15.10;99.90;;;;;;5034727;28;20209;-64
2022/08/21 01:10:06;;;;;;;1999.90;999.90;;;15.20;99.90;;;;;;5034438;28;20677;-64
2022/08/21 01:12:34;;;;;;;1999.90;999.90;;;15.30;99.90;;;;;;5034729;28;20196;-64
2022/08/21 01:15:06;;;;;;;1999.90;999.90;;;15.20;99.90;;;;;;5034302;28;20258;-64
2022/08/21 01:17:34;;;;;;;1999.90;999.90;;;15.20;99.90;;;;;;5034657;28;20258;-64
2022/08/21 01:20:04;;;;;;;1999.90;999.90;;;15.20;99.90;;;;;;5034388;28;20208;-63
2022/08/21 01:22:33;;;;;;;1999.90;999.90;;;15.20;99.90;;;;;;5034133;28;20200;-63
2022/08/21 01:25:00;;;;;;;1999.90;999.90;;;15.10;99.90;;;;;;5034499;28;20200;-64
2022/08/21 01:27:27;;;;;;;1999.90;999.90;;;15.10;99.90;;;;;;5034145;28;20202;-64
2022/08/21 01:30:00;;;;;;;1999.90;999.90;;;15.00;99.90;;;;;;5034022;28;20192;-64
2022/08/21 01:32:28;;;;;;;1999.90;999.90;;;15.00;99.90;;;;;;5033953;28;20540;-63
2022/08/21 01:34:55;;;;;;;1999.90;999.90;;;15.00;99.90;;;;;;5033875;28;20661;-64
2022/08/21 01:37:23;;;;;;;1999.90;999.90;;;15.00;99.90;;;;;;5033982;28;20551;-64
2022/08/21 01:39:51;;;;;;;1999.90;999.90;;;15.00;99.90;;;;;;5034137;28;20196;-64
2022/08/21 01:42:18;;;;;;;1999.90;999.90;;;14.90;99.90;;;;;;5034009;28;20223;-64
2022/08/21 01:44:45;;;;;;;1999.90;999.90;;;15.00;99.90;;;;;;5033717;28;20696;-64
2022/08/21 01:47:15;;;;;;;1999.90;999.90;;;15.00;99.90;;;;;;5033711;28;20622;-64
2022/08/21 01:49:43;;;;;;;1999.90;999.90;;;14.90;99.90;;;;;;5034007;28;20196;-64
2022/08/21 01:52:11;;;;;;;1999.90;999.90;;;14.90;99.90;;;;;;5033541;28;20192;-64
2022/08/21 01:54:38;;;;;;;1999.90;999.90;;;15.00;99.90;;;;;;5033824;28;20206;-65
2022/08/21 01:57:08;;;;;;;1999.90;999.90;;;15.00;99.90;;;;;;5033491;28;20199;-64
2022/08/21 01:59:36;;;;;;;1999.90;999.90;;;14.90;99.90;;;;;;5033785;28;20215;-63
2022/08/21 02:02:04;;;;;;;1999.90;999.90;;;14.70;99.90;;;;;;5033587;28;20218;-64
2022/08/21 02:04:31;;;;;;;1999.90;999.90;;;14.40;99.90;;;;;;5033652;28;20204;-63
2022/08/21 02:06:58;;;;;;;1999.90;999.90;;;14.30;99.90;;;;;;5033612;28;20207;-63
2022/08/21 02:09:25;;;;;;;1999.90;999.90;;;14.40;99.90;;;;;;5033558;28;20241;-64
2022/08/21 02:11:53;;;;;;;1999.90;999.90;;;14.40;99.90;;;;;;5033505;28;20188;-64
2022/08/21 02:14:21;;;;;;;1999.90;999.90;;;14.40;99.90;;;;;;5033068;28;20198;-64
2022/08/21 02:16:49;;;;;;;1999.90;999.90;;;14.40;99.90;;;;;;5033103;28;20207;-64
2022/08/21 02:19:17;;;;;;;1999.90;999.90;;;14.50;99.90;;;;;;5033450;28;20202;-64
2022/08/21 02:21:45;;;;;;;1999.90;999.90;;;14.50;99.90;;;;;;5033153;28;20208;-64
2022/08/21 02:24:13;;;;;;;1999.90;999.90;;;14.50;99.90;;;;;;5033263;28;20210;-64
2022/08/21 02:26:40;;;;;;;1999.90;999.90;;;14.50;99.90;;;;;;5033213;28;20257;-64
2022/08/21 02:29:08;;;;;;;1999.90;999.90;;;14.60;99.90;;;;;;5033241;28;20202;-64
2022/08/21 02:31:36;;;;;;;1999.90;999.90;;;14.60;99.90;;;;;;5033131;28;20208;-64
2022/08/21 02:34:03;;;;;;;1999.90;999.90;;;14.60;99.90;;;;;;5032857;28;20192;-64
2022/08/21 02:36:31;;;;;;;1999.90;999.90;;;14.60;99.90;;;;;;5032615;28;20597;-65
2022/08/21 02:38:58;;;;;;;1999.90;999.90;;;14.70;99.90;;;;;;5032775;28;20249;-64
2022/08/21 02:41:26;;;;;;;1999.90;999.90;;;14.70;99.90;;;;;;5032932;28;20204;-64
2022/08/21 02:43:53;;;;;;;1999.90;999.90;;;14.70;99.90;;;;;;5032654;28;20210;-64
2022/08/21 02:46:21;;;;;;;1999.90;999.90;;;14.70;99.90;;;;;;5032924;28;20201;-64
2022/08/21 02:48:50;;;;;;;1999.90;999.90;;;14.70;99.90;;;;;;5032904;28;20196;-64
2022/08/21 02:51:19;;;;;;;1999.90;999.90;;;14.80;99.90;;;;;;5032810;28;20204;-65
2022/08/21 02:53:49;;;;;;;1999.90;999.90;;;14.80;99.90;;;;;;5032925;28;20214;-65
2022/08/21 02:56:18;;;;;;;1999.90;999.90;;;14.70;99.90;;;;;;5032834;28;20203;-65
2022/08/21 02:58:48;;;;;;;1999.90;999.90;;;14.70;99.90;;;;;;5032474;28;20662;-64
2022/08/21 03:01:16;;;;;;;1999.90;999.90;;;14.70;99.90;;;;;;5032313;28;20226;-64
2022/08/21 03:03:45;;;;;;;1999.90;999.90;;;14.60;99.90;;;;;;5032375;28;20212;-63
2022/08/21 03:06:16;;;;;;;1999.90;999.90;;;14.60;99.90;;;;;;5032724;28;20211;-64
2022/08/21 03:08:44;;;;;;;1999.90;999.90;;;14.60;99.90;;;;;;5032641;28;20192;-65
2022/08/21 03:11:13;;;;;;;1999.90;999.90;;;14.50;99.90;;;;;;5032691;28;20261;-64
2022/08/21 03:13:40;;;;;;;1999.90;999.90;;;14.50;99.90;;;;;;5032653;28;20551;-64
2022/08/21 03:16:08;;;;;;;1999.90;999.90;;;14.30;99.90;;;;;;5032666;28;20545;-64
2022/08/21 03:18:35;;;;;;;1999.90;999.90;;;14.30;99.90;;;;;;5032241;28;20572;-64
2022/08/21 03:21:02;;;;;;;1999.90;999.90;;;14.20;99.90;;;;;;5032362;28;20204;-64
2022/08/21 03:23:31;;;;;;;1999.90;999.90;;;14.20;99.90;;;;;;5032423;28;20230;-64
2022/08/21 03:25:59;;;;;;;1999.90;999.90;;;14.10;99.90;;;;;;5033728;28;20265;-64
2022/08/21 03:28:26;;;;;;;1999.90;999.90;;;14.10;99.90;;;;;;5036632;28;20196;-64
2022/08/21 03:30:54;;;;;;;1999.90;999.90;;;14.10;99.90;;;;;;5036173;28;20565;-64
2022/08/21 03:33:21;;;;;;;1999.90;999.90;;;14.10;99.90;;;;;;5036552;28;20198;-64
2022/08/21 03:35:55;;;;;;;1999.90;999.90;;;14.10;99.90;;;;;;5036167;28;20232;-64
2022/08/21 03:38:22;;;;;;;1999.90;999.90;;;14.00;99.90;;;;;;5036108;28;20196;-64
2022/08/21 03:40:50;;;;;;;1999.90;999.90;;;14.00;99.90;;;;;;5036093;28;20695;-64
2022/08/21 03:43:18;;;;;;;1999.90;999.90;;;14.00;99.90;;;;;;5036361;28;20222;-64
2022/08/21 03:45:45;;;;;;;1999.90;999.90;;;14.00;99.90;;;;;;5036218;28;20200;-64
2022/08/21 03:48:12;;;;;;;1999.90;999.90;;;14.20;99.90;;;;;;5036254;28;20268;-64
2022/08/21 03:50:41;;;;;;;1999.90;999.90;;;14.30;99.90;;;;;;5035803;28;20196;-64
2022/08/21 03:53:09;;;;;;;1999.90;999.90;;;14.30;99.90;;;;;;5036186;28;20199;-64
2022/08/21 03:55:36;;;;;;;1999.90;999.90;;;14.30;99.90;;;;;;5035917;28;20666;-65
2022/08/21 03:58:05;;;;;;;1999.90;999.90;;;14.10;99.90;;;;;;5036082;28;20203;-64
2022/08/21 04:00:32;;;;;;;1999.90;999.90;;;14.10;99.90;;;;;;5035989;28;20211;-64
2022/08/21 04:03:00;;;;;;;1999.90;999.90;;;14.30;99.90;;;;;;5035772;28;20212;-63
2022/08/21 04:05:29;;;;;;;1999.90;999.90;;;14.40;99.90;;;;;;5035647;28;20569;-64
2022/08/21 04:07:58;;;;;;;1999.90;999.90;;;14.40;99.90;;;;;;5035867;28;20207;-66
2022/08/21 04:10:27;;;;;;;1999.90;999.90;;;14.50;99.90;;;;;;5035822;28;20200;-64
2022/08/21 04:12:55;;;;;;;1999.90;999.90;;;14.40;99.90;;;;;;5035486;28;20191;-64
2022/08/21 04:15:26;;;;;;;1999.90;999.90;;;14.40;99.90;;;;;;5035685;28;20207;-64
2022/08/21 04:17:53;;;;;;;1999.90;999.90;;;14.40;99.90;;;;;;5035813;28;20201;-64
2022/08/21 04:20:22;;;;;;;1999.90;999.90;;;14.20;99.90;;;;;;5035236;28;20670;-64
2022/08/21 04:22:50;;;;;;;1999.90;999.90;;;14.20;99.90;;;;;;5035296;28;20216;-64
2022/08/21 04:25:18;;;;;;;1999.90;999.90;;;14.10;99.90;;;;;;5035572;28;20202;-64
2022/08/21 04:27:45;;;;;;;1999.90;999.90;;;14.00;99.90;;;;;;5035216;28;20192;-64
2022/08/21 04:30:14;;;;;;;1999.90;999.90;;;13.90;99.90;;;;;;5035518;28;20210;-67
2022/08/21 04:32:45;;;;;;;1999.90;999.90;;;13.90;99.90;;;;;;5035355;28;20196;-67
2022/08/21 04:35:13;;;;;;;1999.90;999.90;;;13.70;99.90;;;;;;5034992;28;20600;-66
2022/08/21 04:37:40;;;;;;;1999.90;999.90;;;13.60;99.90;;;;;;5034788;28;20203;-67
2022/08/21 04:40:10;;;;;;;1999.90;999.90;;;13.60;99.90;;;;;;5035350;28;20203;-67
2022/08/21 04:42:44;;;;;;;1999.90;999.90;;;13.70;99.90;;;;;;5035228;28;20227;-64
2022/08/21 04:45:16;;;;;;;1999.90;999.90;;;13.50;99.90;;;;;;5035232;28;20181;-64
2022/08/21 04:47:44;;;;;;;1999.90;999.90;;;13.50;99.90;;;;;;5035169;28;20198;-64
2022/08/21 04:50:11;;;;;;;1999.90;999.90;;;13.60;99.90;;;;;;5035031;28;20204;-65
2022/08/21 04:52:38;;;;;;;1999.90;999.90;;;13.70;99.90;;;;;;5035093;28;20196;-65
2022/08/21 04:55:07;;;;;;;1999.90;999.90;;;13.80;99.90;;;;;;5034982;28;20209;-66
2022/08/21 04:57:35;;;;;;;1999.90;999.90;;;13.90;99.90;;;;;;5034899;28;20202;-65
2022/08/21 05:00:04;;;;;;;1999.90;999.90;;;13.90;99.90;;;;;;5034640;28;20200;-65
2022/08/21 05:02:32;;;;;;;1999.90;999.90;;;14.00;99.90;;;;;;5034720;28;20212;-63
2022/08/21 05:05:01;;;;;;;1999.90;999.90;;;14.00;99.90;;;;;;5034569;28;20703;-64
2022/08/21 05:07:31;;;;;;;1999.90;999.90;;;14.00;99.90;;;;;;5034779;28;20196;-65
2022/08/21 05:09:59;;;;;;;1999.90;999.90;;;14.00;99.90;;;;;;5034402;28;20572;-65
2022/08/21 05:12:27;;;;;;;1999.90;999.90;;;14.00;99.90;;;;;;5034472;28;20200;-65
2022/08/21 05:14:54;;;;;;;1999.90;999.90;;;13.90;99.90;;;;;;5034373;28;20566;-65
2022/08/21 05:17:21;;;;;;;1999.90;999.90;;;14.00;99.90;;;;;;5034591;28;20199;-64
2022/08/21 05:19:48;;;;;;;1999.90;999.90;;;14.00;99.90;;;;;;5034179;28;20223;-65
2022/08/21 05:22:22;;;;;;;1999.90;999.90;;;14.10;99.90;;;;;;5034148;28;20213;-64
2022/08/21 05:24:49;;;;;;;1999.90;999.90;;;14.20;99.90;;;;;;5034259;28;20561;-64
2022/08/21 05:27:16;;;;;;;1999.90;999.90;;;14.20;99.90;;;;;;5034398;28;20222;-64
2022/08/21 05:29:43;;;;;;;1999.90;999.90;;;14.30;99.90;;;;;;5033991;28;20208;-64
2022/08/21 05:32:12;;;;;;;1999.90;999.90;;;14.60;99.90;;;;;;5033951;28;20200;-65
2022/08/21 05:34:39;;;;;;;1999.90;999.90;;;14.80;99.90;;;;;;5034184;28;20224;-65
2022/08/21 05:37:07;;;;;;;1999.90;999.90;;;14.90;99.90;;;;;;5034300;28;20189;-65
2022/08/21 05:39:35;;;;;;;1999.90;999.90;;;15.10;99.90;;;;;;5034114;28;20208;-63
2022/08/21 05:42:02;;;;;;;1999.90;999.90;;;15.20;99.90;;;;;;5033944;28;20561;-64
2022/08/21 05:44:30;;;;;;;1999.90;999.90;;;15.30;99.90;;;;;;5034012;28;20220;-64
2022/08/21 05:47:02;;;;;;;1999.90;999.90;;;15.40;99.90;;;;;;5033699;28;20674;-63
2022/08/21 05:49:29;;;;;;;1999.90;999.90;;;15.50;99.90;;;;;;5033126;28;20211;-64
2022/08/21 05:51:56;;;;;;;1999.90;999.90;;;15.80;99.90;;;;;;5033988;28;20207;-64
2022/08/21 05:54:23;;;;;;;1999.90;999.90;;;16.40;99.90;;;;;;5033628;28;20265;-65
2022/08/21 05:56:51;;;;;;;1999.90;999.90;;;16.90;99.90;;;;;;5033864;28;20203;-65
2022/08/21 05:59:19;;;;;;;1999.90;999.90;;;17.20;99.90;;;;;;5033508;28;20766;-65
2022/08/21 06:01:46;;;;;;;1999.90;999.90;;;17.60;99.90;;;;;;5033671;28;20200;-64
2022/08/21 06:04:13;;;;;;;1999.90;999.90;;;17.90;99.90;;;;;;5033384;28;20229;-64
2022/08/21 06:06:41;;;;;;;1999.90;999.90;;;17.90;99.90;;;;;;5033729;28;20196;-65
2022/08/21 06:09:08;;;;;;;1999.90;999.90;;;18.20;99.90;;;;;;5033229;28;20665;-66
2022/08/21 06:11:35;;;;;;;1999.90;999.90;;;18.00;99.90;;;;;;5033537;28;20202;-64
2022/08/21 06:14:06;;;;;;;1999.90;999.90;;;18.20;99.90;;;;;;5033242;28;20204;-65
2022/08/21 06:16:33;;;;;;;1999.90;999.90;;;18.70;99.90;;;;;;5033195;28;20763;-65
2022/08/21 06:19:00;;;;;;;1999.90;999.90;;;18.50;99.90;;;;;;5033185;28;20539;-64
2022/08/21 06:21:27;;;;;;;1999.90;999.90;;;18.90;99.90;;;;;;5033158;28;20192;-64
2022/08/21 06:23:55;;;;;;;1999.90;999.90;;;18.60;99.90;;;;;;5033306;28;20220;-64
2022/08/21 06:26:23;;;;;;;1999.90;999.90;;;18.80;99.90;;;;;;5033260;28;20192;-65
2022/08/21 06:28:51;;;;;;;1999.90;999.90;;;19.00;99.90;;;;;;5033203;28;20201;-65
2022/08/21 06:31:23;;;;;;;1999.90;999.90;;;19.40;99.90;;;;;;5032818;28;20200;-65
2022/08/21 06:33:50;;;;;;;1999.90;999.90;;;19.60;99.90;;;;;;5032919;28;20176;-65
2022/08/21 06:36:17;;;;;;;1999.90;999.90;;;19.90;99.90;;;;;;5032468;28;20225;-65
2022/08/21 06:38:45;;;;;;;1999.90;999.90;;;19.70;99.90;;;;;;5032774;28;20699;-65
2022/08/21 06:41:12;;;;;;;1999.90;999.90;;;19.90;99.90;;;;;;5032405;28;20571;-65
2022/08/21 06:43:39;;;;;;;1999.90;999.90;;;19.50;99.90;;;;;;5032708;28;20222;-65
2022/08/21 06:46:07;;;;;;;1999.90;999.90;;;20.00;99.90;;;;;;5032548;28;20202;-66
2022/08/21 06:48:36;;;;;;;1999.90;999.90;;;20.00;99.90;;;;;;5032641;28;20246;-65
2022/08/21 06:51:03;;;;;;;1999.90;999.90;;;20.30;99.90;;;;;;5032548;28;20199;-66
2022/08/21 06:53:31;;;;;;;1999.90;999.90;;;20.10;99.90;;;;;;5032851;28;20207;-66
2022/08/21 06:55:58;;;;;;;1999.90;999.90;;;20.30;99.90;;;;;;5032571;28;20202;-66
2022/08/21 06:58:25;;;;;;;1999.90;999.90;;;20.40;99.90;;;;;;5032473;28;20196;-65
2022/08/21 07:00:53;;;;;;;1999.90;999.90;;;20.50;99.90;;;;;;5032068;28;20208;-66
2022/08/21 07:03:23;;;;;;;1999.90;999.90;;;20.90;99.90;;;;;;5032398;28;20227;-65
2022/08/21 07:05:52;;;;;;;1999.90;999.90;;;20.90;99.90;;;;;;5032415;28;20194;-64
2022/08/21 07:08:19;;;;;;;1999.90;999.90;;;20.80;99.90;;;;;;5032577;28;20201;-65
2022/08/21 07:10:47;;;;;;;1999.90;999.90;;;21.10;99.90;;;;;;5032503;28;20197;-65
2022/08/21 07:13:14;;;;;;;1999.90;999.90;;;21.10;99.90;;;;;;5032268;28;20204;-65
2022/08/21 07:15:41;;;;;;;1999.90;999.90;;;21.00;99.90;;;;;;5032420;28;20210;-65
2022/08/21 07:18:08;;;;;;;1999.90;999.90;;;21.10;99.90;;;;;;5032476;28;20203;-64
2022/08/21 07:20:35;;;;;;;1999.90;999.90;;;21.30;99.90;;;;;;5032345;28;20202;-66
2022/08/21 07:23:08;;;;;;;1999.90;999.90;;;21.60;99.90;;;;;;5032070;28;20230;-65
2022/08/21 07:25:35;;;;;;;1999.90;999.90;;;22.10;99.90;;;;;;5032505;28;20189;-66
2022/08/21 07:28:02;;;;;;;1999.90;999.90;;;21.60;99.90;;;;;;5032421;28;20192;-67
2022/08/21 07:30:29;;;;;;;1999.90;999.90;;;21.60;99.90;;;;;;5032466;28;20203;-67
2022/08/21 07:32:56;;;;;;;1999.90;999.90;;;21.70;99.90;;;;;;5031999;28;20222;-66
2022/08/21 07:35:24;;;;;;;1999.90;999.90;;;21.50;99.90;;;;;;5031572;28;20224;-67
2022/08/21 07:37:51;;;;;;;1999.90;999.90;;;21.00;99.90;;;;;;5031937;28;20206;-66
2022/08/21 07:40:20;;;;;;;1999.90;999.90;;;21.30;99.90;;;;;;5032305;28;20196;-66
2022/08/21 07:42:51;;;;;;;1999.90;999.90;;;21.60;99.90;;;;;;5032184;28;20196;-65
2022/08/21 07:45:20;;;;;;;1999.90;999.90;;;22.10;99.90;;;;;;5032215;28;20200;-66
2022/08/21 07:47:47;;;;;;;1999.90;999.90;;;22.60;99.90;;;;;;5031898;28;20200;-65
2022/08/21 07:50:16;;;;;;;1999.90;999.90;;;22.60;99.90;;;;;;5032139;28;20204;-65
2022/08/21 07:52:43;;;;;;;1999.90;999.90;;;22.60;99.90;;;;;;5032184;28;20196;-66
2022/08/21 07:55:13;;;;;;;1999.90;999.90;;;22.50;99.90;;;;;;5032167;28;20246;-66
2022/08/21 07:57:42;;;;;;;1999.90;999.90;;;22.80;99.90;;;;;;5032106;28;20211;-65
2022/08/21 08:00:12;;;;;;;1999.90;999.90;;;22.80;99.90;;;;;;5031869;28;20201;-65
2022/08/21 08:02:39;;;;;;;1999.90;999.90;;;22.20;99.90;;;;;;5031937;28;20261;-64
2022/08/21 08:05:09;;;;;;;1999.90;999.90;;;22.40;99.90;;;;;;5032031;28;20231;-65
2022/08/21 08:07:36;;;;;;;1999.90;999.90;;;22.60;99.90;;;;;;5031759;28;20559;-65
2022/08/21 08:10:06;;;;;;;1999.90;999.90;;;22.40;99.90;;;;;;5031727;28;20550;-65
2022/08/21 08:12:33;;;;;;;1999.90;999.90;;;22.40;99.90;;;;;;5033176;28;20222;-65
2022/08/21 08:15:03;;;;;;;1999.90;999.90;;;21.40;99.90;;;;;;5035531;28;20684;-65
2022/08/21 08:17:32;;;;;;;1999.90;999.90;;;21.10;99.90;;;;;;5035356;28;20206;-65
2022/08/21 08:20:00;;;;;;;1999.90;999.90;;;21.50;99.90;;;;;;5035498;28;20192;-65
2022/08/21 08:22:28;;;;;;;1999.90;999.90;;;21.70;99.90;;;;;;5035211;28;20204;-65
2022/08/21 08:24:56;;;;;;;1999.90;999.90;;;22.20;99.90;;;;;;5035180;28;20693;-65
2022/08/21 08:27:23;;;;;;;1999.90;999.90;;;22.70;99.90;;;;;;5035159;28;20583;-66
2022/08/21 08:29:51;;;;;;;1999.90;999.90;;;22.90;99.90;;;;;;5035208;28;20200;-66
2022/08/21 08:32:20;;;;;;;1999.90;999.90;;;22.50;99.90;;;;;;5035016;28;20735;-66
2022/08/21 08:34:48;;;;;;;1999.90;999.90;;;22.30;99.90;;;;;;5034749;28;20228;-66
2022/08/21 08:37:16;;;;;;;1999.90;999.90;;;22.90;99.90;;;;;;5035368;28;20187;-67
2022/08/21 08:39:43;;;;;;;1999.90;999.90;;;23.80;57.70;;;;;;5034940;28;20208;-67
2022/08/21 08:42:13;;;;;;;1999.90;999.90;;;23.90;43.30;;;;;;5035264;28;20200;-68
2022/08/21 08:44:42;;;;;;;1999.90;999.90;;;24.10;13.90;;;;;;5035054;28;20206;-68
2022/08/21 08:47:11;;;;;;;1999.90;999.90;;;23.40;1.00;;;;;;5034868;28;20203;-67
2022/08/21 08:49:48;;;;;;;1999.90;999.90;;;22.90;5.50;;;;;;5034383;28;20200;-68
2022/08/21 08:52:21;;;;;;;1999.90;999.90;;;23.40;14.30;;;;;;5035104;28;20196;-68
2022/08/21 08:54:56;;;;;;;1999.90;999.90;;;24.00;1.30;;;;;;5034659;28;20172;-69
2022/08/21 08:57:25;;;;;;;1999.90;999.90;;;23.90;1.00;;;;;;5035014;28;20191;-67
2022/08/21 08:59:54;;;;;;;1999.90;999.90;;;23.10;1.00;;;;;;5034543;28;20204;-65
2022/08/21 09:02:23;;;;;;;1999.90;999.90;;;22.90;1.00;;;;;;5034749;28;20196;-64
2022/08/21 09:04:52;;;;;;;1999.90;999.90;;;22.70;1.00;;;;;;5034839;28;20212;-64
2022/08/21 09:07:28;;;;;;;1999.90;999.90;;;23.40;1.00;;;;;;5034410;28;20202;-65
2022/08/21 09:10:09;;;;;;;1999.90;999.90;;;23.50;1.00;;;;;;5034738;28;20198;-65
2022/08/21 09:12:47;;;;;;;1999.90;999.90;;;22.90;1.00;;;;;;5034388;28;20740;-65
2022/08/21 09:15:23;;;;;;;1999.90;999.90;;;23.10;1.00;;;;;;5034363;28;20188;-65
2022/08/21 09:18:12;;;;;;;1999.90;999.90;;;23.30;1.00;;;;;;5034395;28;20534;-66
2022/08/21 09:20:50;;;;;;;1999.90;999.90;;;23.60;1.00;;;;;;5034092;28;20552;-68
2022/08/21 09:23:28;;;;;;;1999.90;999.90;;;24.00;1.00;;;;;;5033087;28;20643;-67
2022/08/21 09:26:02;;;;;;;1999.90;999.90;;;24.30;1.00;;;;;;5033987;28;20204;-68
2022/08/21 09:28:33;;;;;;;1999.90;999.90;;;24.10;1.00;;;;;;5034160;28;20185;-67
2022/08/21 09:31:02;;;;;;;1999.90;999.90;;;24.50;1.00;;;;;;5033998;28;20553;-69
2022/08/21 09:33:29;;;;;;;1999.90;999.90;;;24.20;1.00;;;;;;5033899;28;20248;-67
2022/08/21 09:35:58;;;;;;;1999.90;999.90;;;24.50;1.00;;;;;;5033879;28;20232;-68
2022/08/21 09:38:31;;;;;;;1999.90;999.90;;;24.50;1.00;;;;;;5034116;28;20208;-68
2022/08/21 09:41:02;;;;;;;1999.90;999.90;;;23.90;1.00;;;;;;5034212;28;20182;-68
2022/08/21 09:43:29;;;;;;;1999.90;999.90;;;23.80;1.00;;;;;;5034063;28;20195;-68
2022/08/21 09:46:07;;;;;;;1999.90;999.90;;;23.90;1.00;;;;;;5033926;28;20220;-66
2022/08/21 09:48:44;;;;;;;1999.90;999.90;;;24.40;1.00;;;;;;5033970;28;20196;-67
2022/08/21 09:51:16;;;;;;;1999.90;999.90;;;24.50;1.00;;;;;;5033861;28;20191;-67
2022/08/21 09:53:47;;;;;;;1999.90;999.90;;;25.00;1.00;;;;;;5033897;28;20181;-68
2022/08/21 09:59:19;;;;;;;1999.90;999.90;;;25.40;1.00;;;;;;5033838;28;20186;-68
2022/08/21 10:01:48;;;;;;;1999.90;999.90;;;25.60;1.00;;;;;;5033659;28;20177;-67
2022/08/21 10:04:20;;;;;;;1999.90;999.90;;;25.10;1.00;;;;;;5033679;28;20230;-67
2022/08/21 10:06:48;;;;;;;1999.90;999.90;;;25.60;1.00;;;;;;5033709;28;20189;-68
2022/08/21 10:09:18;;;;;;;1999.90;999.90;;;25.40;1.00;;;;;;5033342;28;20215;-67
2022/08/21 10:11:53;;;;;;;1999.90;999.90;;;25.10;1.00;;;;;;5033636;28;20199;-68
2022/08/21 10:14:35;;;;;;;1999.90;999.90;;;25.40;1.00;;;;;;5033202;28;20176;-67
2022/08/21 10:17:08;;;;;;;1999.90;999.90;;;25.10;1.00;;;;;;5033255;28;20725;-67
2022/08/21 10:19:43;;;;;;;1999.90;999.90;;;26.00;1.00;;;;;;5033320;28;20199;-67
2022/08/21 10:22:24;;;;;;;1999.90;999.90;;;26.50;1.00;;;;;;5033385;28;20184;-67
2022/08/21 10:24:58;;;;;;;1999.90;999.90;;;26.40;1.00;;;;;;5033373;28;20211;-67
2022/08/21 10:27:35;;;;;;;1999.90;999.90;;;26.50;1.00;;;;;;5032987;28;20597;-68
2022/08/21 10:30:06;;;;;;;1999.90;999.90;;;26.20;1.00;;;;;;5032754;28;20188;-66
2022/08/21 10:32:51;;;;;;;1999.90;999.90;;;26.70;1.00;;;;;;5032420;28;20180;-65
2022/08/21 10:35:23;;;;;;;1999.90;999.90;;;27.50;1.00;;;;;;5032596;28;20277;-66
2022/08/21 10:38:11;;;;;;;1999.90;999.90;;;27.40;1.00;;;;;;5032768;28;20184;-68
2022/08/21 10:40:47;;;;;;;1999.90;999.90;;;27.00;1.00;;;;;;5032772;28;20192;-68
2022/08/21 10:43:20;;;;;;;1999.90;999.90;;;26.30;1.00;;;;;;5032733;28;20181;-67
2022/08/21 10:45:58;;;;;;;1999.90;999.90;;;27.00;1.00;;;;;;5032889;28;20215;-68
2022/08/21 10:48:30;;;;;;;1999.90;999.90;;;27.00;1.00;;;;;;5032322;28;20188;-67
2022/08/21 10:51:05;;;;;;;1999.90;999.90;;;26.40;1.00;;;;;;5032477;28;20184;-67
2022/08/21 10:53:45;;;;;;;1999.90;999.90;;;26.70;1.00;;;;;;5032894;28;20188;-67
2022/08/21 10:56:18;;;;;;;1999.90;999.90;;;27.30;1.00;;;;;;5032538;28;20731;-68
2022/08/21 10:58:54;;;;;;;1999.90;999.90;;;27.60;1.00;;;;;;5032823;28;20544;-67
2022/08/21 11:01:27;;;;;;;1999.90;999.90;;;26.80;1.00;;;;;;5032098;28;20195;-66
2022/08/21 11:04:02;;;;;;;1999.90;999.90;;;25.50;1.00;;;;;;5032789;28;20210;-66
2022/08/21 11:06:32;;;;;;;1999.90;999.90;;;25.40;1.00;;;;;;5031805;28;20611;-66
2022/08/21 11:09:13;;;;;;;1999.90;999.90;;;25.80;1.00;;;;;;5031837;28;20697;-66
2022/08/21 11:11:47;;;;;;;1999.90;999.90;;;26.30;1.00;;;;;;5032330;28;20184;-66
2022/08/21 11:14:22;;;;;;;1999.90;999.90;;;26.60;1.00;;;;;;5032340;28;20665;-66
2022/08/21 11:16:54;;;;;;;1999.90;999.90;;;25.80;1.00;;;;;;5032558;28;20188;-66
2022/08/21 11:19:28;;;;;;;1999.90;999.90;;;25.20;1.00;;;;;;5032201;28;20203;-66
2022/08/21 11:22:04;;;;;;;1999.90;999.90;;;25.70;1.00;;;;;;5032545;28;20179;-66
2022/08/21 11:24:39;;;;;;;1999.90;999.90;;;25.40;1.00;;;;;;5032450;28;20180;-67
2022/08/21 11:27:16;;;;;;;1999.90;999.90;;;26.00;1.00;;;;;;5032537;28;20194;-67
2022/08/21 11:29:48;;;;;;;1999.90;999.90;;;26.80;1.00;;;;;;5032135;28;20188;-67
2022/08/21 11:32:57;;;;;;;1999.90;999.90;;;26.30;1.00;;;;;;5032336;28;20206;-67
2022/08/21 11:35:34;;;;;;;1999.90;999.90;;;26.50;1.00;;;;;;4971055;28;20245;-67
2022/08/21 11:38:13;;;;;;;1999.90;999.90;;;26.30;1.00;;;;;;4971213;28;20206;-67
2022/08/21 11:40:55;;;;;;;1999.90;999.90;;;26.40;1.00;;;;;;4971172;28;20192;-66
2022/08/21 11:43:31;;;;;;;1999.90;999.90;;;25.30;1.00;;;;;;4971145;28;20208;-66
2022/08/21 11:46:09;;;;;;;1999.90;999.90;;;25.90;1.00;;;;;;4971034;28;20206;-66
2022/08/21 11:48:47;;;;;;;1999.90;999.90;;;26.40;1.00;;;;;;4975042;28;20213;-66
2022/08/21 11:51:19;;;;;;;1999.90;999.90;;;26.60;1.00;;;;;;4974853;28;20277;-66
2022/08/21 11:53:52;;;;;;;1999.90;999.90;;;27.10;1.00;;;;;;4974952;28;20190;-67
2022/08/21 11:56:25;;;;;;;1999.90;999.90;;;26.30;1.00;;;;;;4974871;28;20198;-67
2022/08/21 11:58:56;;;;;;;1999.90;999.90;;;27.00;1.00;;;;;;4974840;28;20198;-67
2022/08/21 12:01:26;;;;;;;1999.90;999.90;;;27.70;1.00;;;;;;4974779;28;20193;-67
2022/08/21 12:03:57;;;;;;;1999.90;999.90;;;28.00;1.00;;;;;;4974830;28;20217;-66
2022/08/21 12:06:32;;;;;;;1999.90;999.90;;;27.70;1.00;;;;;;4974665;28;20204;-67
2022/08/21 12:09:03;;;;;;;1999.90;999.90;;;27.30;1.00;;;;;;4995343;28;20196;-67
2022/08/21 12:11:32;;;;;;;1999.90;999.90;;;26.50;1.00;;;;;;5035558;28;20238;-67
2022/08/21 12:14:01;;;;;;;1999.90;999.90;;;27.10;1.00;;;;;;5035813;28;20214;-67
2022/08/21 12:16:35;;;;;;;1999.90;999.90;;;27.60;1.00;;;;;;5035694;28;20201;-66